<gpx creator="Cyclotour.ca" version="1.1" xmlns:gpsies="http://www.gpsies.com/GPX/1/0" xmlns:xsi="http://www.w3.org/2001/XMLSchema-instance" xmlns="http://www.topografix.com/GPX/1/1" xsi:schemaLocation="http://www.topografix.com/GPX/1/1 http://www.topografix.com/GPX/1/1/gpx.xsd http://www.gpsies.com/GPX/1/0 http://www.gpsies.com/gpsies.xsd">
<trk>
<name>Jour 4 -  Parcours 59 km  - Tour du Mont Mégantic (2018)</name>
<trkseg>
<trkpt lat="45.461410000" lon="-71.071960000">
<ele>0</ele>
<time>2026-09-04T06:24:45Z</time>
</trkpt>
<trkpt lat="45.461560000" lon="-71.072080000">
<ele>0</ele>
<time>2026-09-04T06:24:46Z</time>
</trkpt>
<trkpt lat="45.461940000" lon="-71.072290000">
<ele>0</ele>
<time>2026-09-04T06:24:47Z</time>
</trkpt>
<trkpt lat="45.462730000" lon="-71.072320000">
<ele>0</ele>
<time>2026-09-04T06:24:48Z</time>
</trkpt>
<trkpt lat="45.462770000" lon="-71.072280000">
<ele>0</ele>
<time>2026-09-04T06:24:49Z</time>
</trkpt>
<trkpt lat="45.462950000" lon="-71.073800000">
<ele>0</ele>
<time>2026-09-04T06:24:50Z</time>
</trkpt>
<trkpt lat="45.462950000" lon="-71.073800000">
<ele>0</ele>
<time>2026-09-04T06:24:51Z</time>
</trkpt>
<trkpt lat="45.462950000" lon="-71.073840000">
<ele>0</ele>
<time>2026-09-04T06:24:52Z</time>
</trkpt>
<trkpt lat="45.463100000" lon="-71.073770000">
<ele>0</ele>
<time>2026-09-04T06:24:53Z</time>
</trkpt>
<trkpt lat="45.469880000" lon="-71.073950000">
<ele>0</ele>
<time>2026-09-04T06:24:54Z</time>
</trkpt>
<trkpt lat="45.469880000" lon="-71.073950000">
<ele>0</ele>
<time>2026-09-04T06:24:55Z</time>
</trkpt>
<trkpt lat="45.475130000" lon="-71.074080000">
<ele>0</ele>
<time>2026-09-04T06:24:56Z</time>
</trkpt>
<trkpt lat="45.477450000" lon="-71.074140000">
<ele>0</ele>
<time>2026-09-04T06:24:57Z</time>
</trkpt>
<trkpt lat="45.479520000" lon="-71.074270000">
<ele>0</ele>
<time>2026-09-04T06:24:58Z</time>
</trkpt>
<trkpt lat="45.479520000" lon="-71.074270000">
<ele>0</ele>
<time>2026-09-04T06:24:59Z</time>
</trkpt>
<trkpt lat="45.480070000" lon="-71.074300000">
<ele>0</ele>
<time>2026-09-04T06:25:00Z</time>
</trkpt>
<trkpt lat="45.482450000" lon="-71.074330000">
<ele>0</ele>
<time>2026-09-04T06:25:01Z</time>
</trkpt>
<trkpt lat="45.483900000" lon="-71.074390000">
<ele>0</ele>
<time>2026-09-04T06:25:02Z</time>
</trkpt>
<trkpt lat="45.483900000" lon="-71.074390000">
<ele>0</ele>
<time>2026-09-04T06:25:03Z</time>
</trkpt>
<trkpt lat="45.484560000" lon="-71.074420000">
<ele>0</ele>
<time>2026-09-04T06:25:04Z</time>
</trkpt>
<trkpt lat="45.484610000" lon="-71.076150000">
<ele>0</ele>
<time>2026-09-04T06:25:05Z</time>
</trkpt>
<trkpt lat="45.484630000" lon="-71.077590000">
<ele>0</ele>
<time>2026-09-04T06:25:06Z</time>
</trkpt>
<trkpt lat="45.484630000" lon="-71.077590000">
<ele>0</ele>
<time>2026-09-04T06:25:07Z</time>
</trkpt>
<trkpt lat="45.484640000" lon="-71.082610000">
<ele>0</ele>
<time>2026-09-04T06:25:08Z</time>
</trkpt>
<trkpt lat="45.484770000" lon="-71.097090000">
<ele>0</ele>
<time>2026-09-04T06:25:09Z</time>
</trkpt>
<trkpt lat="45.484770000" lon="-71.097090000">
<ele>0</ele>
<time>2026-09-04T06:25:10Z</time>
</trkpt>
<trkpt lat="45.484770000" lon="-71.098980000">
<ele>0</ele>
<time>2026-09-04T06:25:11Z</time>
</trkpt>
<trkpt lat="45.484860000" lon="-71.100160000">
<ele>0</ele>
<time>2026-09-04T06:25:12Z</time>
</trkpt>
<trkpt lat="45.485230000" lon="-71.100870000">
<ele>0</ele>
<time>2026-09-04T06:25:13Z</time>
</trkpt>
<trkpt lat="45.485680000" lon="-71.101520000">
<ele>0</ele>
<time>2026-09-04T06:25:14Z</time>
</trkpt>
<trkpt lat="45.488420000" lon="-71.104910000">
<ele>0</ele>
<time>2026-09-04T06:25:15Z</time>
</trkpt>
<trkpt lat="45.488770000" lon="-71.105770000">
<ele>0</ele>
<time>2026-09-04T06:25:16Z</time>
</trkpt>
<trkpt lat="45.488980000" lon="-71.106610000">
<ele>0</ele>
<time>2026-09-04T06:25:17Z</time>
</trkpt>
<trkpt lat="45.489150000" lon="-71.107870000">
<ele>0</ele>
<time>2026-09-04T06:25:18Z</time>
</trkpt>
<trkpt lat="45.489400000" lon="-71.112900000">
<ele>0</ele>
<time>2026-09-04T06:25:19Z</time>
</trkpt>
<trkpt lat="45.489420000" lon="-71.115370000">
<ele>0</ele>
<time>2026-09-04T06:25:20Z</time>
</trkpt>
<trkpt lat="45.489440000" lon="-71.116510000">
<ele>0</ele>
<time>2026-09-04T06:25:21Z</time>
</trkpt>
<trkpt lat="45.489440000" lon="-71.116510000">
<ele>0</ele>
<time>2026-09-04T06:25:22Z</time>
</trkpt>
<trkpt lat="45.489430000" lon="-71.118370000">
<ele>0</ele>
<time>2026-09-04T06:25:23Z</time>
</trkpt>
<trkpt lat="45.489400000" lon="-71.120640000">
<ele>0</ele>
<time>2026-09-04T06:25:24Z</time>
</trkpt>
<trkpt lat="45.489400000" lon="-71.122100000">
<ele>0</ele>
<time>2026-09-04T06:25:25Z</time>
</trkpt>
<trkpt lat="45.489460000" lon="-71.122770000">
<ele>0</ele>
<time>2026-09-04T06:25:26Z</time>
</trkpt>
<trkpt lat="45.489550000" lon="-71.123480000">
<ele>0</ele>
<time>2026-09-04T06:25:27Z</time>
</trkpt>
<trkpt lat="45.490250000" lon="-71.127540000">
<ele>0</ele>
<time>2026-09-04T06:25:28Z</time>
</trkpt>
<trkpt lat="45.490630000" lon="-71.130090000">
<ele>0</ele>
<time>2026-09-04T06:25:29Z</time>
</trkpt>
<trkpt lat="45.490750000" lon="-71.130560000">
<ele>0</ele>
<time>2026-09-04T06:25:30Z</time>
</trkpt>
<trkpt lat="45.490880000" lon="-71.130900000">
<ele>0</ele>
<time>2026-09-04T06:25:31Z</time>
</trkpt>
<trkpt lat="45.491090000" lon="-71.131210000">
<ele>0</ele>
<time>2026-09-04T06:25:32Z</time>
</trkpt>
<trkpt lat="45.491190000" lon="-71.131320000">
<ele>0</ele>
<time>2026-09-04T06:25:33Z</time>
</trkpt>
<trkpt lat="45.491680000" lon="-71.131760000">
<ele>0</ele>
<time>2026-09-04T06:25:34Z</time>
</trkpt>
<trkpt lat="45.491790000" lon="-71.131910000">
<ele>0</ele>
<time>2026-09-04T06:25:35Z</time>
</trkpt>
<trkpt lat="45.492040000" lon="-71.132300000">
<ele>0</ele>
<time>2026-09-04T06:25:36Z</time>
</trkpt>
<trkpt lat="45.492270000" lon="-71.132710000">
<ele>0</ele>
<time>2026-09-04T06:25:37Z</time>
</trkpt>
<trkpt lat="45.492460000" lon="-71.133150000">
<ele>0</ele>
<time>2026-09-04T06:25:38Z</time>
</trkpt>
<trkpt lat="45.492720000" lon="-71.133770000">
<ele>0</ele>
<time>2026-09-04T06:25:39Z</time>
</trkpt>
<trkpt lat="45.492720000" lon="-71.133770000">
<ele>0</ele>
<time>2026-09-04T06:25:40Z</time>
</trkpt>
<trkpt lat="45.494230000" lon="-71.137440000">
<ele>0</ele>
<time>2026-09-04T06:25:41Z</time>
</trkpt>
<trkpt lat="45.494300000" lon="-71.137780000">
<ele>0</ele>
<time>2026-09-04T06:25:42Z</time>
</trkpt>
<trkpt lat="45.494300000" lon="-71.139310000">
<ele>0</ele>
<time>2026-09-04T06:25:43Z</time>
</trkpt>
<trkpt lat="45.494320000" lon="-71.141130000">
<ele>0</ele>
<time>2026-09-04T06:25:44Z</time>
</trkpt>
<trkpt lat="45.494290000" lon="-71.144190000">
<ele>0</ele>
<time>2026-09-04T06:25:45Z</time>
</trkpt>
<trkpt lat="45.494270000" lon="-71.144860000">
<ele>0</ele>
<time>2026-09-04T06:25:46Z</time>
</trkpt>
<trkpt lat="45.494330000" lon="-71.147020000">
<ele>0</ele>
<time>2026-09-04T06:25:47Z</time>
</trkpt>
<trkpt lat="45.494350000" lon="-71.147570000">
<ele>0</ele>
<time>2026-09-04T06:25:48Z</time>
</trkpt>
<trkpt lat="45.494340000" lon="-71.147980000">
<ele>0</ele>
<time>2026-09-04T06:25:49Z</time>
</trkpt>
<trkpt lat="45.494270000" lon="-71.149360000">
<ele>0</ele>
<time>2026-09-04T06:25:50Z</time>
</trkpt>
<trkpt lat="45.494260000" lon="-71.149830000">
<ele>0</ele>
<time>2026-09-04T06:25:51Z</time>
</trkpt>
<trkpt lat="45.494320000" lon="-71.150710000">
<ele>0</ele>
<time>2026-09-04T06:25:52Z</time>
</trkpt>
<trkpt lat="45.494340000" lon="-71.151200000">
<ele>0</ele>
<time>2026-09-04T06:25:53Z</time>
</trkpt>
<trkpt lat="45.494330000" lon="-71.152030000">
<ele>0</ele>
<time>2026-09-04T06:25:54Z</time>
</trkpt>
<trkpt lat="45.494340000" lon="-71.153530000">
<ele>0</ele>
<time>2026-09-04T06:25:55Z</time>
</trkpt>
<trkpt lat="45.494340000" lon="-71.153530000">
<ele>0</ele>
<time>2026-09-04T06:25:56Z</time>
</trkpt>
<trkpt lat="45.494320000" lon="-71.154160000">
<ele>0</ele>
<time>2026-09-04T06:25:57Z</time>
</trkpt>
<trkpt lat="45.494270000" lon="-71.154910000">
<ele>0</ele>
<time>2026-09-04T06:25:58Z</time>
</trkpt>
<trkpt lat="45.494260000" lon="-71.155370000">
<ele>0</ele>
<time>2026-09-04T06:25:59Z</time>
</trkpt>
<trkpt lat="45.494290000" lon="-71.156170000">
<ele>0</ele>
<time>2026-09-04T06:26:00Z</time>
</trkpt>
<trkpt lat="45.494340000" lon="-71.157860000">
<ele>0</ele>
<time>2026-09-04T06:26:01Z</time>
</trkpt>
<trkpt lat="45.494340000" lon="-71.158620000">
<ele>0</ele>
<time>2026-09-04T06:26:02Z</time>
</trkpt>
<trkpt lat="45.494300000" lon="-71.159150000">
<ele>0</ele>
<time>2026-09-04T06:26:03Z</time>
</trkpt>
<trkpt lat="45.494220000" lon="-71.160420000">
<ele>0</ele>
<time>2026-09-04T06:26:04Z</time>
</trkpt>
<trkpt lat="45.494270000" lon="-71.163490000">
<ele>0</ele>
<time>2026-09-04T06:26:05Z</time>
</trkpt>
<trkpt lat="45.494270000" lon="-71.165900000">
<ele>0</ele>
<time>2026-09-04T06:26:06Z</time>
</trkpt>
<trkpt lat="45.494280000" lon="-71.166960000">
<ele>0</ele>
<time>2026-09-04T06:26:07Z</time>
</trkpt>
<trkpt lat="45.494240000" lon="-71.169480000">
<ele>0</ele>
<time>2026-09-04T06:26:08Z</time>
</trkpt>
<trkpt lat="45.494240000" lon="-71.170880000">
<ele>0</ele>
<time>2026-09-04T06:26:09Z</time>
</trkpt>
<trkpt lat="45.494210000" lon="-71.171450000">
<ele>0</ele>
<time>2026-09-04T06:26:10Z</time>
</trkpt>
<trkpt lat="45.494130000" lon="-71.172680000">
<ele>0</ele>
<time>2026-09-04T06:26:11Z</time>
</trkpt>
<trkpt lat="45.494120000" lon="-71.174010000">
<ele>0</ele>
<time>2026-09-04T06:26:12Z</time>
</trkpt>
<trkpt lat="45.494160000" lon="-71.174980000">
<ele>0</ele>
<time>2026-09-04T06:26:13Z</time>
</trkpt>
<trkpt lat="45.494160000" lon="-71.176940000">
<ele>0</ele>
<time>2026-09-04T06:26:14Z</time>
</trkpt>
<trkpt lat="45.494120000" lon="-71.178760000">
<ele>0</ele>
<time>2026-09-04T06:26:15Z</time>
</trkpt>
<trkpt lat="45.494130000" lon="-71.180600000">
<ele>0</ele>
<time>2026-09-04T06:26:16Z</time>
</trkpt>
<trkpt lat="45.494090000" lon="-71.183380000">
<ele>0</ele>
<time>2026-09-04T06:26:17Z</time>
</trkpt>
<trkpt lat="45.494090000" lon="-71.183380000">
<ele>0</ele>
<time>2026-09-04T06:26:18Z</time>
</trkpt>
<trkpt lat="45.494010000" lon="-71.191190000">
<ele>0</ele>
<time>2026-09-04T06:26:19Z</time>
</trkpt>
<trkpt lat="45.493970000" lon="-71.191570000">
<ele>0</ele>
<time>2026-09-04T06:26:20Z</time>
</trkpt>
<trkpt lat="45.493870000" lon="-71.191920000">
<ele>0</ele>
<time>2026-09-04T06:26:21Z</time>
</trkpt>
<trkpt lat="45.493570000" lon="-71.192640000">
<ele>0</ele>
<time>2026-09-04T06:26:22Z</time>
</trkpt>
<trkpt lat="45.493220000" lon="-71.193590000">
<ele>0</ele>
<time>2026-09-04T06:26:23Z</time>
</trkpt>
<trkpt lat="45.492920000" lon="-71.194400000">
<ele>0</ele>
<time>2026-09-04T06:26:24Z</time>
</trkpt>
<trkpt lat="45.492700000" lon="-71.195110000">
<ele>0</ele>
<time>2026-09-04T06:26:25Z</time>
</trkpt>
<trkpt lat="45.492500000" lon="-71.195920000">
<ele>0</ele>
<time>2026-09-04T06:26:26Z</time>
</trkpt>
<trkpt lat="45.492400000" lon="-71.196410000">
<ele>0</ele>
<time>2026-09-04T06:26:27Z</time>
</trkpt>
<trkpt lat="45.492390000" lon="-71.196850000">
<ele>0</ele>
<time>2026-09-04T06:26:28Z</time>
</trkpt>
<trkpt lat="45.492390000" lon="-71.198700000">
<ele>0</ele>
<time>2026-09-04T06:26:29Z</time>
</trkpt>
<trkpt lat="45.492440000" lon="-71.201130000">
<ele>0</ele>
<time>2026-09-04T06:26:30Z</time>
</trkpt>
<trkpt lat="45.492440000" lon="-71.201130000">
<ele>0</ele>
<time>2026-09-04T06:26:31Z</time>
</trkpt>
<trkpt lat="45.492470000" lon="-71.202330000">
<ele>0</ele>
<time>2026-09-04T06:26:32Z</time>
</trkpt>
<trkpt lat="45.492640000" lon="-71.206970000">
<ele>0</ele>
<time>2026-09-04T06:26:33Z</time>
</trkpt>
<trkpt lat="45.492770000" lon="-71.210540000">
<ele>0</ele>
<time>2026-09-04T06:26:34Z</time>
</trkpt>
<trkpt lat="45.492730000" lon="-71.210890000">
<ele>0</ele>
<time>2026-09-04T06:26:35Z</time>
</trkpt>
<trkpt lat="45.492170000" lon="-71.212860000">
<ele>0</ele>
<time>2026-09-04T06:26:36Z</time>
</trkpt>
<trkpt lat="45.492060000" lon="-71.213410000">
<ele>0</ele>
<time>2026-09-04T06:26:37Z</time>
</trkpt>
<trkpt lat="45.492060000" lon="-71.213710000">
<ele>0</ele>
<time>2026-09-04T06:26:38Z</time>
</trkpt>
<trkpt lat="45.492080000" lon="-71.213920000">
<ele>0</ele>
<time>2026-09-04T06:26:39Z</time>
</trkpt>
<trkpt lat="45.492180000" lon="-71.214380000">
<ele>0</ele>
<time>2026-09-04T06:26:40Z</time>
</trkpt>
<trkpt lat="45.492870000" lon="-71.216400000">
<ele>0</ele>
<time>2026-09-04T06:26:41Z</time>
</trkpt>
<trkpt lat="45.492940000" lon="-71.216750000">
<ele>0</ele>
<time>2026-09-04T06:26:42Z</time>
</trkpt>
<trkpt lat="45.493060000" lon="-71.219170000">
<ele>0</ele>
<time>2026-09-04T06:26:43Z</time>
</trkpt>
<trkpt lat="45.493080000" lon="-71.219770000">
<ele>0</ele>
<time>2026-09-04T06:26:44Z</time>
</trkpt>
<trkpt lat="45.493080000" lon="-71.219770000">
<ele>0</ele>
<time>2026-09-04T06:26:45Z</time>
</trkpt>
<trkpt lat="45.493180000" lon="-71.222120000">
<ele>0</ele>
<time>2026-09-04T06:26:46Z</time>
</trkpt>
<trkpt lat="45.493230000" lon="-71.222270000">
<ele>0</ele>
<time>2026-09-04T06:26:47Z</time>
</trkpt>
<trkpt lat="45.493300000" lon="-71.222460000">
<ele>0</ele>
<time>2026-09-04T06:26:48Z</time>
</trkpt>
<trkpt lat="45.493440000" lon="-71.222550000">
<ele>0</ele>
<time>2026-09-04T06:26:49Z</time>
</trkpt>
<trkpt lat="45.493610000" lon="-71.222640000">
<ele>0</ele>
<time>2026-09-04T06:26:50Z</time>
</trkpt>
<trkpt lat="45.494250000" lon="-71.222820000">
<ele>0</ele>
<time>2026-09-04T06:26:51Z</time>
</trkpt>
<trkpt lat="45.495550000" lon="-71.223120000">
<ele>0</ele>
<time>2026-09-04T06:26:52Z</time>
</trkpt>
<trkpt lat="45.495950000" lon="-71.223240000">
<ele>0</ele>
<time>2026-09-04T06:26:53Z</time>
</trkpt>
<trkpt lat="45.496060000" lon="-71.223310000">
<ele>0</ele>
<time>2026-09-04T06:26:54Z</time>
</trkpt>
<trkpt lat="45.496220000" lon="-71.223460000">
<ele>0</ele>
<time>2026-09-04T06:26:55Z</time>
</trkpt>
<trkpt lat="45.496400000" lon="-71.223690000">
<ele>0</ele>
<time>2026-09-04T06:26:56Z</time>
</trkpt>
<trkpt lat="45.497180000" lon="-71.224870000">
<ele>0</ele>
<time>2026-09-04T06:26:57Z</time>
</trkpt>
<trkpt lat="45.497300000" lon="-71.224990000">
<ele>0</ele>
<time>2026-09-04T06:26:58Z</time>
</trkpt>
<trkpt lat="45.497540000" lon="-71.225060000">
<ele>0</ele>
<time>2026-09-04T06:26:59Z</time>
</trkpt>
<trkpt lat="45.499450000" lon="-71.225540000">
<ele>0</ele>
<time>2026-09-04T06:27:00Z</time>
</trkpt>
<trkpt lat="45.499450000" lon="-71.225540000">
<ele>0</ele>
<time>2026-09-04T06:27:01Z</time>
</trkpt>
<trkpt lat="45.500040000" lon="-71.225680000">
<ele>0</ele>
<time>2026-09-04T06:27:02Z</time>
</trkpt>
<trkpt lat="45.501510000" lon="-71.225980000">
<ele>0</ele>
<time>2026-09-04T06:27:03Z</time>
</trkpt>
<trkpt lat="45.503260000" lon="-71.226390000">
<ele>0</ele>
<time>2026-09-04T06:27:04Z</time>
</trkpt>
<trkpt lat="45.504140000" lon="-71.226550000">
<ele>0</ele>
<time>2026-09-04T06:27:05Z</time>
</trkpt>
<trkpt lat="45.506210000" lon="-71.227030000">
<ele>0</ele>
<time>2026-09-04T06:27:06Z</time>
</trkpt>
<trkpt lat="45.507970000" lon="-71.227340000">
<ele>0</ele>
<time>2026-09-04T06:27:07Z</time>
</trkpt>
<trkpt lat="45.508160000" lon="-71.227360000">
<ele>0</ele>
<time>2026-09-04T06:27:08Z</time>
</trkpt>
<trkpt lat="45.508350000" lon="-71.227340000">
<ele>0</ele>
<time>2026-09-04T06:27:09Z</time>
</trkpt>
<trkpt lat="45.508500000" lon="-71.227290000">
<ele>0</ele>
<time>2026-09-04T06:27:10Z</time>
</trkpt>
<trkpt lat="45.509250000" lon="-71.226910000">
<ele>0</ele>
<time>2026-09-04T06:27:11Z</time>
</trkpt>
<trkpt lat="45.509490000" lon="-71.226810000">
<ele>0</ele>
<time>2026-09-04T06:27:12Z</time>
</trkpt>
<trkpt lat="45.509710000" lon="-71.226790000">
<ele>0</ele>
<time>2026-09-04T06:27:13Z</time>
</trkpt>
<trkpt lat="45.509990000" lon="-71.226890000">
<ele>0</ele>
<time>2026-09-04T06:27:14Z</time>
</trkpt>
<trkpt lat="45.510160000" lon="-71.226970000">
<ele>0</ele>
<time>2026-09-04T06:27:15Z</time>
</trkpt>
<trkpt lat="45.510930000" lon="-71.227450000">
<ele>0</ele>
<time>2026-09-04T06:27:16Z</time>
</trkpt>
<trkpt lat="45.510930000" lon="-71.227450000">
<ele>0</ele>
<time>2026-09-04T06:27:17Z</time>
</trkpt>
<trkpt lat="45.511940000" lon="-71.228080000">
<ele>0</ele>
<time>2026-09-04T06:27:18Z</time>
</trkpt>
<trkpt lat="45.512170000" lon="-71.228210000">
<ele>0</ele>
<time>2026-09-04T06:27:19Z</time>
</trkpt>
<trkpt lat="45.512440000" lon="-71.228310000">
<ele>0</ele>
<time>2026-09-04T06:27:20Z</time>
</trkpt>
<trkpt lat="45.512670000" lon="-71.228390000">
<ele>0</ele>
<time>2026-09-04T06:27:21Z</time>
</trkpt>
<trkpt lat="45.513170000" lon="-71.228500000">
<ele>0</ele>
<time>2026-09-04T06:27:22Z</time>
</trkpt>
<trkpt lat="45.514910000" lon="-71.228850000">
<ele>0</ele>
<time>2026-09-04T06:27:23Z</time>
</trkpt>
<trkpt lat="45.520640000" lon="-71.230040000">
<ele>0</ele>
<time>2026-09-04T06:27:24Z</time>
</trkpt>
<trkpt lat="45.521650000" lon="-71.230320000">
<ele>0</ele>
<time>2026-09-04T06:27:25Z</time>
</trkpt>
<trkpt lat="45.521650000" lon="-71.230650000">
<ele>0</ele>
<time>2026-09-04T06:27:26Z</time>
</trkpt>
<trkpt lat="45.521710000" lon="-71.231220000">
<ele>0</ele>
<time>2026-09-04T06:27:27Z</time>
</trkpt>
<trkpt lat="45.521750000" lon="-71.231440000">
<ele>0</ele>
<time>2026-09-04T06:27:28Z</time>
</trkpt>
<trkpt lat="45.521750000" lon="-71.231440000">
<ele>0</ele>
<time>2026-09-04T06:27:29Z</time>
</trkpt>
<trkpt lat="45.521880000" lon="-71.231930000">
<ele>0</ele>
<time>2026-09-04T06:27:30Z</time>
</trkpt>
<trkpt lat="45.523630000" lon="-71.236540000">
<ele>0</ele>
<time>2026-09-04T06:27:31Z</time>
</trkpt>
<trkpt lat="45.523880000" lon="-71.237340000">
<ele>0</ele>
<time>2026-09-04T06:27:32Z</time>
</trkpt>
<trkpt lat="45.524070000" lon="-71.238060000">
<ele>0</ele>
<time>2026-09-04T06:27:33Z</time>
</trkpt>
<trkpt lat="45.524270000" lon="-71.239270000">
<ele>0</ele>
<time>2026-09-04T06:27:34Z</time>
</trkpt>
<trkpt lat="45.525770000" lon="-71.253910000">
<ele>0</ele>
<time>2026-09-04T06:27:35Z</time>
</trkpt>
<trkpt lat="45.526360000" lon="-71.258570000">
<ele>0</ele>
<time>2026-09-04T06:27:36Z</time>
</trkpt>
<trkpt lat="45.526440000" lon="-71.259060000">
<ele>0</ele>
<time>2026-09-04T06:27:37Z</time>
</trkpt>
<trkpt lat="45.526550000" lon="-71.259450000">
<ele>0</ele>
<time>2026-09-04T06:27:38Z</time>
</trkpt>
<trkpt lat="45.526670000" lon="-71.259810000">
<ele>0</ele>
<time>2026-09-04T06:27:39Z</time>
</trkpt>
<trkpt lat="45.526840000" lon="-71.260170000">
<ele>0</ele>
<time>2026-09-04T06:27:40Z</time>
</trkpt>
<trkpt lat="45.527050000" lon="-71.260530000">
<ele>0</ele>
<time>2026-09-04T06:27:41Z</time>
</trkpt>
<trkpt lat="45.527260000" lon="-71.260840000">
<ele>0</ele>
<time>2026-09-04T06:27:42Z</time>
</trkpt>
<trkpt lat="45.528800000" lon="-71.262610000">
<ele>0</ele>
<time>2026-09-04T06:27:43Z</time>
</trkpt>
<trkpt lat="45.528800000" lon="-71.262610000">
<ele>0</ele>
<time>2026-09-04T06:27:44Z</time>
</trkpt>
<trkpt lat="45.529010000" lon="-71.262910000">
<ele>0</ele>
<time>2026-09-04T06:27:45Z</time>
</trkpt>
<trkpt lat="45.529260000" lon="-71.263430000">
<ele>0</ele>
<time>2026-09-04T06:27:46Z</time>
</trkpt>
<trkpt lat="45.529350000" lon="-71.263790000">
<ele>0</ele>
<time>2026-09-04T06:27:47Z</time>
</trkpt>
<trkpt lat="45.529400000" lon="-71.264460000">
<ele>0</ele>
<time>2026-09-04T06:27:48Z</time>
</trkpt>
<trkpt lat="45.529200000" lon="-71.269480000">
<ele>0</ele>
<time>2026-09-04T06:27:49Z</time>
</trkpt>
<trkpt lat="45.529130000" lon="-71.270840000">
<ele>0</ele>
<time>2026-09-04T06:27:50Z</time>
</trkpt>
<trkpt lat="45.529000000" lon="-71.272480000">
<ele>0</ele>
<time>2026-09-04T06:27:51Z</time>
</trkpt>
<trkpt lat="45.528930000" lon="-71.273020000">
<ele>0</ele>
<time>2026-09-04T06:27:52Z</time>
</trkpt>
<trkpt lat="45.528830000" lon="-71.273310000">
<ele>0</ele>
<time>2026-09-04T06:27:53Z</time>
</trkpt>
<trkpt lat="45.528580000" lon="-71.273780000">
<ele>0</ele>
<time>2026-09-04T06:27:54Z</time>
</trkpt>
<trkpt lat="45.528270000" lon="-71.274270000">
<ele>0</ele>
<time>2026-09-04T06:27:55Z</time>
</trkpt>
<trkpt lat="45.528110000" lon="-71.274460000">
<ele>0</ele>
<time>2026-09-04T06:27:56Z</time>
</trkpt>
<trkpt lat="45.527880000" lon="-71.274670000">
<ele>0</ele>
<time>2026-09-04T06:27:57Z</time>
</trkpt>
<trkpt lat="45.527880000" lon="-71.274670000">
<ele>0</ele>
<time>2026-09-04T06:27:58Z</time>
</trkpt>
<trkpt lat="45.527170000" lon="-71.275310000">
<ele>0</ele>
<time>2026-09-04T06:27:59Z</time>
</trkpt>
<trkpt lat="45.527130000" lon="-71.275290000">
<ele>0</ele>
<time>2026-09-04T06:28:00Z</time>
</trkpt>
<trkpt lat="45.527060000" lon="-71.275280000">
<ele>0</ele>
<time>2026-09-04T06:28:01Z</time>
</trkpt>
<trkpt lat="45.526780000" lon="-71.275400000">
<ele>0</ele>
<time>2026-09-04T06:28:02Z</time>
</trkpt>
<trkpt lat="45.526510000" lon="-71.275490000">
<ele>0</ele>
<time>2026-09-04T06:28:03Z</time>
</trkpt>
<trkpt lat="45.525960000" lon="-71.275500000">
<ele>0</ele>
<time>2026-09-04T06:28:04Z</time>
</trkpt>
<trkpt lat="45.525570000" lon="-71.275590000">
<ele>0</ele>
<time>2026-09-04T06:28:05Z</time>
</trkpt>
<trkpt lat="45.525480000" lon="-71.275620000">
<ele>0</ele>
<time>2026-09-04T06:28:06Z</time>
</trkpt>
<trkpt lat="45.525420000" lon="-71.275680000">
<ele>0</ele>
<time>2026-09-04T06:28:07Z</time>
</trkpt>
<trkpt lat="45.525400000" lon="-71.275930000">
<ele>0</ele>
<time>2026-09-04T06:28:08Z</time>
</trkpt>
<trkpt lat="45.525290000" lon="-71.276740000">
<ele>0</ele>
<time>2026-09-04T06:28:09Z</time>
</trkpt>
<trkpt lat="45.525290000" lon="-71.276740000">
<ele>0</ele>
<time>2026-09-04T06:28:10Z</time>
</trkpt>
<trkpt lat="45.525190000" lon="-71.277200000">
<ele>0</ele>
<time>2026-09-04T06:28:11Z</time>
</trkpt>
<trkpt lat="45.524960000" lon="-71.277940000">
<ele>0</ele>
<time>2026-09-04T06:28:12Z</time>
</trkpt>
<trkpt lat="45.523690000" lon="-71.277090000">
<ele>0</ele>
<time>2026-09-04T06:28:13Z</time>
</trkpt>
<trkpt lat="45.523690000" lon="-71.277090000">
<ele>0</ele>
<time>2026-09-04T06:28:14Z</time>
</trkpt>
<trkpt lat="45.522740000" lon="-71.276450000">
<ele>0</ele>
<time>2026-09-04T06:28:15Z</time>
</trkpt>
<trkpt lat="45.522740000" lon="-71.276450000">
<ele>0</ele>
<time>2026-09-04T06:28:16Z</time>
</trkpt>
<trkpt lat="45.522060000" lon="-71.276010000">
<ele>0</ele>
<time>2026-09-04T06:28:17Z</time>
</trkpt>
<trkpt lat="45.520960000" lon="-71.275140000">
<ele>0</ele>
<time>2026-09-04T06:28:18Z</time>
</trkpt>
<trkpt lat="45.519700000" lon="-71.274240000">
<ele>0</ele>
<time>2026-09-04T06:28:19Z</time>
</trkpt>
<trkpt lat="45.519700000" lon="-71.274240000">
<ele>0</ele>
<time>2026-09-04T06:28:20Z</time>
</trkpt>
<trkpt lat="45.516490000" lon="-71.271950000">
<ele>0</ele>
<time>2026-09-04T06:28:21Z</time>
</trkpt>
<trkpt lat="45.516490000" lon="-71.271950000">
<ele>0</ele>
<time>2026-09-04T06:28:22Z</time>
</trkpt>
<trkpt lat="45.514550000" lon="-71.270540000">
<ele>0</ele>
<time>2026-09-04T06:28:23Z</time>
</trkpt>
<trkpt lat="45.512240000" lon="-71.268930000">
<ele>0</ele>
<time>2026-09-04T06:28:24Z</time>
</trkpt>
<trkpt lat="45.511730000" lon="-71.268600000">
<ele>0</ele>
<time>2026-09-04T06:28:25Z</time>
</trkpt>
<trkpt lat="45.511710000" lon="-71.268590000">
<ele>0</ele>
<time>2026-09-04T06:28:26Z</time>
</trkpt>
<trkpt lat="45.511710000" lon="-71.268590000">
<ele>0</ele>
<time>2026-09-04T06:28:27Z</time>
</trkpt>
<trkpt lat="45.511540000" lon="-71.268510000">
<ele>0</ele>
<time>2026-09-04T06:28:28Z</time>
</trkpt>
<trkpt lat="45.511350000" lon="-71.268450000">
<ele>0</ele>
<time>2026-09-04T06:28:29Z</time>
</trkpt>
<trkpt lat="45.511120000" lon="-71.268410000">
<ele>0</ele>
<time>2026-09-04T06:28:30Z</time>
</trkpt>
<trkpt lat="45.510910000" lon="-71.268410000">
<ele>0</ele>
<time>2026-09-04T06:28:31Z</time>
</trkpt>
<trkpt lat="45.510530000" lon="-71.268490000">
<ele>0</ele>
<time>2026-09-04T06:28:32Z</time>
</trkpt>
<trkpt lat="45.510010000" lon="-71.268680000">
<ele>0</ele>
<time>2026-09-04T06:28:33Z</time>
</trkpt>
<trkpt lat="45.509610000" lon="-71.268820000">
<ele>0</ele>
<time>2026-09-04T06:28:34Z</time>
</trkpt>
<trkpt lat="45.509290000" lon="-71.268870000">
<ele>0</ele>
<time>2026-09-04T06:28:35Z</time>
</trkpt>
<trkpt lat="45.509100000" lon="-71.268870000">
<ele>0</ele>
<time>2026-09-04T06:28:36Z</time>
</trkpt>
<trkpt lat="45.508900000" lon="-71.268830000">
<ele>0</ele>
<time>2026-09-04T06:28:37Z</time>
</trkpt>
<trkpt lat="45.508460000" lon="-71.268690000">
<ele>0</ele>
<time>2026-09-04T06:28:38Z</time>
</trkpt>
<trkpt lat="45.507810000" lon="-71.268430000">
<ele>0</ele>
<time>2026-09-04T06:28:39Z</time>
</trkpt>
<trkpt lat="45.507810000" lon="-71.268430000">
<ele>0</ele>
<time>2026-09-04T06:28:40Z</time>
</trkpt>
<trkpt lat="45.505220000" lon="-71.267320000">
<ele>0</ele>
<time>2026-09-04T06:28:41Z</time>
</trkpt>
<trkpt lat="45.502570000" lon="-71.266160000">
<ele>0</ele>
<time>2026-09-04T06:28:42Z</time>
</trkpt>
<trkpt lat="45.502570000" lon="-71.266160000">
<ele>0</ele>
<time>2026-09-04T06:28:43Z</time>
</trkpt>
<trkpt lat="45.497590000" lon="-71.263990000">
<ele>0</ele>
<time>2026-09-04T06:28:44Z</time>
</trkpt>
<trkpt lat="45.497590000" lon="-71.263990000">
<ele>0</ele>
<time>2026-09-04T06:28:45Z</time>
</trkpt>
<trkpt lat="45.494880000" lon="-71.262800000">
<ele>0</ele>
<time>2026-09-04T06:28:46Z</time>
</trkpt>
<trkpt lat="45.494290000" lon="-71.262640000">
<ele>0</ele>
<time>2026-09-04T06:28:47Z</time>
</trkpt>
<trkpt lat="45.493940000" lon="-71.262580000">
<ele>0</ele>
<time>2026-09-04T06:28:48Z</time>
</trkpt>
<trkpt lat="45.493400000" lon="-71.262530000">
<ele>0</ele>
<time>2026-09-04T06:28:49Z</time>
</trkpt>
<trkpt lat="45.492950000" lon="-71.262510000">
<ele>0</ele>
<time>2026-09-04T06:28:50Z</time>
</trkpt>
<trkpt lat="45.492950000" lon="-71.262510000">
<ele>0</ele>
<time>2026-09-04T06:28:51Z</time>
</trkpt>
<trkpt lat="45.492020000" lon="-71.262490000">
<ele>0</ele>
<time>2026-09-04T06:28:52Z</time>
</trkpt>
<trkpt lat="45.491480000" lon="-71.262440000">
<ele>0</ele>
<time>2026-09-04T06:28:53Z</time>
</trkpt>
<trkpt lat="45.490890000" lon="-71.262370000">
<ele>0</ele>
<time>2026-09-04T06:28:54Z</time>
</trkpt>
<trkpt lat="45.490340000" lon="-71.262260000">
<ele>0</ele>
<time>2026-09-04T06:28:55Z</time>
</trkpt>
<trkpt lat="45.489920000" lon="-71.262130000">
<ele>0</ele>
<time>2026-09-04T06:28:56Z</time>
</trkpt>
<trkpt lat="45.489290000" lon="-71.261900000">
<ele>0</ele>
<time>2026-09-04T06:28:57Z</time>
</trkpt>
<trkpt lat="45.487150000" lon="-71.261050000">
<ele>0</ele>
<time>2026-09-04T06:28:58Z</time>
</trkpt>
<trkpt lat="45.487150000" lon="-71.261050000">
<ele>0</ele>
<time>2026-09-04T06:28:59Z</time>
</trkpt>
<trkpt lat="45.484520000" lon="-71.260000000">
<ele>0</ele>
<time>2026-09-04T06:29:00Z</time>
</trkpt>
<trkpt lat="45.481950000" lon="-71.259030000">
<ele>0</ele>
<time>2026-09-04T06:29:01Z</time>
</trkpt>
<trkpt lat="45.481950000" lon="-71.259030000">
<ele>0</ele>
<time>2026-09-04T06:29:02Z</time>
</trkpt>
<trkpt lat="45.480850000" lon="-71.258630000">
<ele>0</ele>
<time>2026-09-04T06:29:03Z</time>
</trkpt>
<trkpt lat="45.480540000" lon="-71.258540000">
<ele>0</ele>
<time>2026-09-04T06:29:04Z</time>
</trkpt>
<trkpt lat="45.480180000" lon="-71.258460000">
<ele>0</ele>
<time>2026-09-04T06:29:05Z</time>
</trkpt>
<trkpt lat="45.479730000" lon="-71.258440000">
<ele>0</ele>
<time>2026-09-04T06:29:06Z</time>
</trkpt>
<trkpt lat="45.479110000" lon="-71.258490000">
<ele>0</ele>
<time>2026-09-04T06:29:07Z</time>
</trkpt>
<trkpt lat="45.478220000" lon="-71.258640000">
<ele>0</ele>
<time>2026-09-04T06:29:08Z</time>
</trkpt>
<trkpt lat="45.476880000" lon="-71.258790000">
<ele>0</ele>
<time>2026-09-04T06:29:09Z</time>
</trkpt>
<trkpt lat="45.476580000" lon="-71.258810000">
<ele>0</ele>
<time>2026-09-04T06:29:10Z</time>
</trkpt>
<trkpt lat="45.475950000" lon="-71.258820000">
<ele>0</ele>
<time>2026-09-04T06:29:11Z</time>
</trkpt>
<trkpt lat="45.475180000" lon="-71.258800000">
<ele>0</ele>
<time>2026-09-04T06:29:12Z</time>
</trkpt>
<trkpt lat="45.474820000" lon="-71.258800000">
<ele>0</ele>
<time>2026-09-04T06:29:13Z</time>
</trkpt>
<trkpt lat="45.474820000" lon="-71.258800000">
<ele>0</ele>
<time>2026-09-04T06:29:14Z</time>
</trkpt>
<trkpt lat="45.472680000" lon="-71.258760000">
<ele>0</ele>
<time>2026-09-04T06:29:15Z</time>
</trkpt>
<trkpt lat="45.469140000" lon="-71.258700000">
<ele>0</ele>
<time>2026-09-04T06:29:16Z</time>
</trkpt>
<trkpt lat="45.469140000" lon="-71.258700000">
<ele>0</ele>
<time>2026-09-04T06:29:17Z</time>
</trkpt>
<trkpt lat="45.463300000" lon="-71.258710000">
<ele>0</ele>
<time>2026-09-04T06:29:18Z</time>
</trkpt>
<trkpt lat="45.463300000" lon="-71.258710000">
<ele>0</ele>
<time>2026-09-04T06:29:19Z</time>
</trkpt>
<trkpt lat="45.456350000" lon="-71.258730000">
<ele>0</ele>
<time>2026-09-04T06:29:20Z</time>
</trkpt>
<trkpt lat="45.456350000" lon="-71.258730000">
<ele>0</ele>
<time>2026-09-04T06:29:21Z</time>
</trkpt>
<trkpt lat="45.452970000" lon="-71.258750000">
<ele>0</ele>
<time>2026-09-04T06:29:22Z</time>
</trkpt>
<trkpt lat="45.450210000" lon="-71.258820000">
<ele>0</ele>
<time>2026-09-04T06:29:23Z</time>
</trkpt>
<trkpt lat="45.449690000" lon="-71.258820000">
<ele>0</ele>
<time>2026-09-04T06:29:24Z</time>
</trkpt>
<trkpt lat="45.449690000" lon="-71.258820000">
<ele>0</ele>
<time>2026-09-04T06:29:25Z</time>
</trkpt>
<trkpt lat="45.444740000" lon="-71.258790000">
<ele>0</ele>
<time>2026-09-04T06:29:26Z</time>
</trkpt>
<trkpt lat="45.443290000" lon="-71.258810000">
<ele>0</ele>
<time>2026-09-04T06:29:27Z</time>
</trkpt>
<trkpt lat="45.441750000" lon="-71.258720000">
<ele>0</ele>
<time>2026-09-04T06:29:28Z</time>
</trkpt>
<trkpt lat="45.439710000" lon="-71.258650000">
<ele>0</ele>
<time>2026-09-04T06:29:29Z</time>
</trkpt>
<trkpt lat="45.439710000" lon="-71.258650000">
<ele>0</ele>
<time>2026-09-04T06:29:30Z</time>
</trkpt>
<trkpt lat="45.439180000" lon="-71.258640000">
<ele>0</ele>
<time>2026-09-04T06:29:31Z</time>
</trkpt>
<trkpt lat="45.436930000" lon="-71.258270000">
<ele>0</ele>
<time>2026-09-04T06:29:32Z</time>
</trkpt>
<trkpt lat="45.435960000" lon="-71.258090000">
<ele>0</ele>
<time>2026-09-04T06:29:33Z</time>
</trkpt>
<trkpt lat="45.435280000" lon="-71.257920000">
<ele>0</ele>
<time>2026-09-04T06:29:34Z</time>
</trkpt>
<trkpt lat="45.433850000" lon="-71.257710000">
<ele>0</ele>
<time>2026-09-04T06:29:35Z</time>
</trkpt>
<trkpt lat="45.433290000" lon="-71.257700000">
<ele>0</ele>
<time>2026-09-04T06:29:36Z</time>
</trkpt>
<trkpt lat="45.432830000" lon="-71.257810000">
<ele>0</ele>
<time>2026-09-04T06:29:37Z</time>
</trkpt>
<trkpt lat="45.432240000" lon="-71.257910000">
<ele>0</ele>
<time>2026-09-04T06:29:38Z</time>
</trkpt>
<trkpt lat="45.431720000" lon="-71.258050000">
<ele>0</ele>
<time>2026-09-04T06:29:39Z</time>
</trkpt>
<trkpt lat="45.431180000" lon="-71.258140000">
<ele>0</ele>
<time>2026-09-04T06:29:40Z</time>
</trkpt>
<trkpt lat="45.430470000" lon="-71.258160000">
<ele>0</ele>
<time>2026-09-04T06:29:41Z</time>
</trkpt>
<trkpt lat="45.429880000" lon="-71.258030000">
<ele>0</ele>
<time>2026-09-04T06:29:42Z</time>
</trkpt>
<trkpt lat="45.429360000" lon="-71.257870000">
<ele>0</ele>
<time>2026-09-04T06:29:43Z</time>
</trkpt>
<trkpt lat="45.427400000" lon="-71.256810000">
<ele>0</ele>
<time>2026-09-04T06:29:44Z</time>
</trkpt>
<trkpt lat="45.426540000" lon="-71.256470000">
<ele>0</ele>
<time>2026-09-04T06:29:45Z</time>
</trkpt>
<trkpt lat="45.426080000" lon="-71.256350000">
<ele>0</ele>
<time>2026-09-04T06:29:46Z</time>
</trkpt>
<trkpt lat="45.422080000" lon="-71.255570000">
<ele>0</ele>
<time>2026-09-04T06:29:47Z</time>
</trkpt>
<trkpt lat="45.419700000" lon="-71.255150000">
<ele>0</ele>
<time>2026-09-04T06:29:48Z</time>
</trkpt>
<trkpt lat="45.419700000" lon="-71.255150000">
<ele>0</ele>
<time>2026-09-04T06:29:49Z</time>
</trkpt>
<trkpt lat="45.416490000" lon="-71.254590000">
<ele>0</ele>
<time>2026-09-04T06:29:50Z</time>
</trkpt>
<trkpt lat="45.410210000" lon="-71.253460000">
<ele>0</ele>
<time>2026-09-04T06:29:51Z</time>
</trkpt>
<trkpt lat="45.410210000" lon="-71.253460000">
<ele>0</ele>
<time>2026-09-04T06:29:52Z</time>
</trkpt>
<trkpt lat="45.407350000" lon="-71.252980000">
<ele>0</ele>
<time>2026-09-04T06:29:53Z</time>
</trkpt>
<trkpt lat="45.406810000" lon="-71.252920000">
<ele>0</ele>
<time>2026-09-04T06:29:54Z</time>
</trkpt>
<trkpt lat="45.406670000" lon="-71.252890000">
<ele>0</ele>
<time>2026-09-04T06:29:55Z</time>
</trkpt>
<trkpt lat="45.406490000" lon="-71.252840000">
<ele>0</ele>
<time>2026-09-04T06:29:56Z</time>
</trkpt>
<trkpt lat="45.406120000" lon="-71.252690000">
<ele>0</ele>
<time>2026-09-04T06:29:57Z</time>
</trkpt>
<trkpt lat="45.405910000" lon="-71.252590000">
<ele>0</ele>
<time>2026-09-04T06:29:58Z</time>
</trkpt>
<trkpt lat="45.405250000" lon="-71.252080000">
<ele>0</ele>
<time>2026-09-04T06:29:59Z</time>
</trkpt>
<trkpt lat="45.404690000" lon="-71.251690000">
<ele>0</ele>
<time>2026-09-04T06:30:00Z</time>
</trkpt>
<trkpt lat="45.404690000" lon="-71.251690000">
<ele>0</ele>
<time>2026-09-04T06:30:01Z</time>
</trkpt>
<trkpt lat="45.403140000" lon="-71.250600000">
<ele>0</ele>
<time>2026-09-04T06:30:02Z</time>
</trkpt>
<trkpt lat="45.402680000" lon="-71.250250000">
<ele>0</ele>
<time>2026-09-04T06:30:03Z</time>
</trkpt>
<trkpt lat="45.402680000" lon="-71.250250000">
<ele>0</ele>
<time>2026-09-04T06:30:04Z</time>
</trkpt>
<trkpt lat="45.401850000" lon="-71.249620000">
<ele>0</ele>
<time>2026-09-04T06:30:05Z</time>
</trkpt>
<trkpt lat="45.401840000" lon="-71.248730000">
<ele>0</ele>
<time>2026-09-04T06:30:06Z</time>
</trkpt>
<trkpt lat="45.401840000" lon="-71.248730000">
<ele>0</ele>
<time>2026-09-04T06:30:07Z</time>
</trkpt>
<trkpt lat="45.401820000" lon="-71.244140000">
<ele>0</ele>
<time>2026-09-04T06:30:08Z</time>
</trkpt>
<trkpt lat="45.401860000" lon="-71.239010000">
<ele>0</ele>
<time>2026-09-04T06:30:09Z</time>
</trkpt>
<trkpt lat="45.401860000" lon="-71.239010000">
<ele>0</ele>
<time>2026-09-04T06:30:10Z</time>
</trkpt>
<trkpt lat="45.401930000" lon="-71.233040000">
<ele>0</ele>
<time>2026-09-04T06:30:11Z</time>
</trkpt>
<trkpt lat="45.401910000" lon="-71.228090000">
<ele>0</ele>
<time>2026-09-04T06:30:12Z</time>
</trkpt>
<trkpt lat="45.401860000" lon="-71.226070000">
<ele>0</ele>
<time>2026-09-04T06:30:13Z</time>
</trkpt>
<trkpt lat="45.401830000" lon="-71.218790000">
<ele>0</ele>
<time>2026-09-04T06:30:14Z</time>
</trkpt>
<trkpt lat="45.401830000" lon="-71.218790000">
<ele>0</ele>
<time>2026-09-04T06:30:15Z</time>
</trkpt>
<trkpt lat="45.401800000" lon="-71.205950000">
<ele>0</ele>
<time>2026-09-04T06:30:16Z</time>
</trkpt>
<trkpt lat="45.401820000" lon="-71.204280000">
<ele>0</ele>
<time>2026-09-04T06:30:17Z</time>
</trkpt>
<trkpt lat="45.401800000" lon="-71.202250000">
<ele>0</ele>
<time>2026-09-04T06:30:18Z</time>
</trkpt>
<trkpt lat="45.401800000" lon="-71.194290000">
<ele>0</ele>
<time>2026-09-04T06:30:19Z</time>
</trkpt>
<trkpt lat="45.401780000" lon="-71.190310000">
<ele>0</ele>
<time>2026-09-04T06:30:20Z</time>
</trkpt>
<trkpt lat="45.401780000" lon="-71.190310000">
<ele>0</ele>
<time>2026-09-04T06:30:21Z</time>
</trkpt>
<trkpt lat="45.401680000" lon="-71.173930000">
<ele>0</ele>
<time>2026-09-04T06:30:22Z</time>
</trkpt>
<trkpt lat="45.401600000" lon="-71.173350000">
<ele>0</ele>
<time>2026-09-04T06:30:23Z</time>
</trkpt>
<trkpt lat="45.401520000" lon="-71.172950000">
<ele>0</ele>
<time>2026-09-04T06:30:24Z</time>
</trkpt>
<trkpt lat="45.401300000" lon="-71.172260000">
<ele>0</ele>
<time>2026-09-04T06:30:25Z</time>
</trkpt>
<trkpt lat="45.401040000" lon="-71.171760000">
<ele>0</ele>
<time>2026-09-04T06:30:26Z</time>
</trkpt>
<trkpt lat="45.399710000" lon="-71.169780000">
<ele>0</ele>
<time>2026-09-04T06:30:27Z</time>
</trkpt>
<trkpt lat="45.398090000" lon="-71.167540000">
<ele>0</ele>
<time>2026-09-04T06:30:28Z</time>
</trkpt>
<trkpt lat="45.397970000" lon="-71.167360000">
<ele>0</ele>
<time>2026-09-04T06:30:29Z</time>
</trkpt>
<trkpt lat="45.397970000" lon="-71.167360000">
<ele>0</ele>
<time>2026-09-04T06:30:30Z</time>
</trkpt>
<trkpt lat="45.395990000" lon="-71.164420000">
<ele>0</ele>
<time>2026-09-04T06:30:31Z</time>
</trkpt>
<trkpt lat="45.395070000" lon="-71.162920000">
<ele>0</ele>
<time>2026-09-04T06:30:32Z</time>
</trkpt>
<trkpt lat="45.394780000" lon="-71.162210000">
<ele>0</ele>
<time>2026-09-04T06:30:33Z</time>
</trkpt>
<trkpt lat="45.394650000" lon="-71.161870000">
<ele>0</ele>
<time>2026-09-04T06:30:34Z</time>
</trkpt>
<trkpt lat="45.394520000" lon="-71.161280000">
<ele>0</ele>
<time>2026-09-04T06:30:35Z</time>
</trkpt>
<trkpt lat="45.394390000" lon="-71.160590000">
<ele>0</ele>
<time>2026-09-04T06:30:36Z</time>
</trkpt>
<trkpt lat="45.394370000" lon="-71.159900000">
<ele>0</ele>
<time>2026-09-04T06:30:37Z</time>
</trkpt>
<trkpt lat="45.394430000" lon="-71.154040000">
<ele>0</ele>
<time>2026-09-04T06:30:38Z</time>
</trkpt>
<trkpt lat="45.394480000" lon="-71.148420000">
<ele>0</ele>
<time>2026-09-04T06:30:39Z</time>
</trkpt>
<trkpt lat="45.394480000" lon="-71.148420000">
<ele>0</ele>
<time>2026-09-04T06:30:40Z</time>
</trkpt>
<trkpt lat="45.394590000" lon="-71.137400000">
<ele>0</ele>
<time>2026-09-04T06:30:41Z</time>
</trkpt>
<trkpt lat="45.394590000" lon="-71.131970000">
<ele>0</ele>
<time>2026-09-04T06:30:42Z</time>
</trkpt>
<trkpt lat="45.394560000" lon="-71.131340000">
<ele>0</ele>
<time>2026-09-04T06:30:43Z</time>
</trkpt>
<trkpt lat="45.394570000" lon="-71.126510000">
<ele>0</ele>
<time>2026-09-04T06:30:44Z</time>
</trkpt>
<trkpt lat="45.394580000" lon="-71.121330000">
<ele>0</ele>
<time>2026-09-04T06:30:45Z</time>
</trkpt>
<trkpt lat="45.394580000" lon="-71.121330000">
<ele>0</ele>
<time>2026-09-04T06:30:46Z</time>
</trkpt>
<trkpt lat="45.394600000" lon="-71.107350000">
<ele>0</ele>
<time>2026-09-04T06:30:47Z</time>
</trkpt>
<trkpt lat="45.394610000" lon="-71.102650000">
<ele>0</ele>
<time>2026-09-04T06:30:48Z</time>
</trkpt>
<trkpt lat="45.394600000" lon="-71.095930000">
<ele>0</ele>
<time>2026-09-04T06:30:49Z</time>
</trkpt>
<trkpt lat="45.394600000" lon="-71.094830000">
<ele>0</ele>
<time>2026-09-04T06:30:50Z</time>
</trkpt>
<trkpt lat="45.394600000" lon="-71.094830000">
<ele>0</ele>
<time>2026-09-04T06:30:51Z</time>
</trkpt>
<trkpt lat="45.394620000" lon="-71.084790000">
<ele>0</ele>
<time>2026-09-04T06:30:52Z</time>
</trkpt>
<trkpt lat="45.394620000" lon="-71.084790000">
<ele>0</ele>
<time>2026-09-04T06:30:53Z</time>
</trkpt>
<trkpt lat="45.394590000" lon="-71.083410000">
<ele>0</ele>
<time>2026-09-04T06:30:54Z</time>
</trkpt>
<trkpt lat="45.394600000" lon="-71.080440000">
<ele>0</ele>
<time>2026-09-04T06:30:55Z</time>
</trkpt>
<trkpt lat="45.394570000" lon="-71.073250000">
<ele>0</ele>
<time>2026-09-04T06:30:56Z</time>
</trkpt>
<trkpt lat="45.394570000" lon="-71.073250000">
<ele>0</ele>
<time>2026-09-04T06:30:57Z</time>
</trkpt>
<trkpt lat="45.394570000" lon="-71.073030000">
<ele>0</ele>
<time>2026-09-04T06:30:58Z</time>
</trkpt>
<trkpt lat="45.395330000" lon="-71.072950000">
<ele>0</ele>
<time>2026-09-04T06:30:59Z</time>
</trkpt>
<trkpt lat="45.397030000" lon="-71.072850000">
<ele>0</ele>
<time>2026-09-04T06:31:00Z</time>
</trkpt>
<trkpt lat="45.397030000" lon="-71.072850000">
<ele>0</ele>
<time>2026-09-04T06:31:01Z</time>
</trkpt>
<trkpt lat="45.400510000" lon="-71.072690000">
<ele>0</ele>
<time>2026-09-04T06:31:02Z</time>
</trkpt>
<trkpt lat="45.401270000" lon="-71.072730000">
<ele>0</ele>
<time>2026-09-04T06:31:03Z</time>
</trkpt>
<trkpt lat="45.401790000" lon="-71.072790000">
<ele>0</ele>
<time>2026-09-04T06:31:04Z</time>
</trkpt>
<trkpt lat="45.402210000" lon="-71.072860000">
<ele>0</ele>
<time>2026-09-04T06:31:05Z</time>
</trkpt>
<trkpt lat="45.402710000" lon="-71.073000000">
<ele>0</ele>
<time>2026-09-04T06:31:06Z</time>
</trkpt>
<trkpt lat="45.403730000" lon="-71.073390000">
<ele>0</ele>
<time>2026-09-04T06:31:07Z</time>
</trkpt>
<trkpt lat="45.404150000" lon="-71.073530000">
<ele>0</ele>
<time>2026-09-04T06:31:08Z</time>
</trkpt>
<trkpt lat="45.404600000" lon="-71.073650000">
<ele>0</ele>
<time>2026-09-04T06:31:09Z</time>
</trkpt>
<trkpt lat="45.405390000" lon="-71.073790000">
<ele>0</ele>
<time>2026-09-04T06:31:10Z</time>
</trkpt>
<trkpt lat="45.406200000" lon="-71.073790000">
<ele>0</ele>
<time>2026-09-04T06:31:11Z</time>
</trkpt>
<trkpt lat="45.406200000" lon="-71.073790000">
<ele>0</ele>
<time>2026-09-04T06:31:12Z</time>
</trkpt>
<trkpt lat="45.407320000" lon="-71.073640000">
<ele>0</ele>
<time>2026-09-04T06:31:13Z</time>
</trkpt>
<trkpt lat="45.409180000" lon="-71.073360000">
<ele>0</ele>
<time>2026-09-04T06:31:14Z</time>
</trkpt>
<trkpt lat="45.413040000" lon="-71.072780000">
<ele>0</ele>
<time>2026-09-04T06:31:15Z</time>
</trkpt>
<trkpt lat="45.413990000" lon="-71.072560000">
<ele>0</ele>
<time>2026-09-04T06:31:16Z</time>
</trkpt>
<trkpt lat="45.414210000" lon="-71.072490000">
<ele>0</ele>
<time>2026-09-04T06:31:17Z</time>
</trkpt>
<trkpt lat="45.414210000" lon="-71.072490000">
<ele>0</ele>
<time>2026-09-04T06:31:18Z</time>
</trkpt>
<trkpt lat="45.415700000" lon="-71.071990000">
<ele>0</ele>
<time>2026-09-04T06:31:19Z</time>
</trkpt>
<trkpt lat="45.416220000" lon="-71.071900000">
<ele>0</ele>
<time>2026-09-04T06:31:20Z</time>
</trkpt>
<trkpt lat="45.417050000" lon="-71.071870000">
<ele>0</ele>
<time>2026-09-04T06:31:21Z</time>
</trkpt>
<trkpt lat="45.421690000" lon="-71.072160000">
<ele>0</ele>
<time>2026-09-04T06:31:22Z</time>
</trkpt>
<trkpt lat="45.423870000" lon="-71.072350000">
<ele>0</ele>
<time>2026-09-04T06:31:23Z</time>
</trkpt>
<trkpt lat="45.424590000" lon="-71.072370000">
<ele>0</ele>
<time>2026-09-04T06:31:24Z</time>
</trkpt>
<trkpt lat="45.426030000" lon="-71.072480000">
<ele>0</ele>
<time>2026-09-04T06:31:25Z</time>
</trkpt>
<trkpt lat="45.426900000" lon="-71.072490000">
<ele>0</ele>
<time>2026-09-04T06:31:26Z</time>
</trkpt>
<trkpt lat="45.426900000" lon="-71.072490000">
<ele>0</ele>
<time>2026-09-04T06:31:27Z</time>
</trkpt>
<trkpt lat="45.431790000" lon="-71.072530000">
<ele>0</ele>
<time>2026-09-04T06:31:28Z</time>
</trkpt>
<trkpt lat="45.434350000" lon="-71.072490000">
<ele>0</ele>
<time>2026-09-04T06:31:29Z</time>
</trkpt>
<trkpt lat="45.435960000" lon="-71.072410000">
<ele>0</ele>
<time>2026-09-04T06:31:30Z</time>
</trkpt>
<trkpt lat="45.438120000" lon="-71.072360000">
<ele>0</ele>
<time>2026-09-04T06:31:31Z</time>
</trkpt>
<trkpt lat="45.438120000" lon="-71.072360000">
<ele>0</ele>
<time>2026-09-04T06:31:32Z</time>
</trkpt>
<trkpt lat="45.438320000" lon="-71.072360000">
<ele>0</ele>
<time>2026-09-04T06:31:33Z</time>
</trkpt>
<trkpt lat="45.438350000" lon="-71.075150000">
<ele>0</ele>
<time>2026-09-04T06:31:34Z</time>
</trkpt>
<trkpt lat="45.438420000" lon="-71.075710000">
<ele>0</ele>
<time>2026-09-04T06:31:35Z</time>
</trkpt>
<trkpt lat="45.438760000" lon="-71.076040000">
<ele>0</ele>
<time>2026-09-04T06:31:36Z</time>
</trkpt>
<trkpt lat="45.438790000" lon="-71.076070000">
<ele>0</ele>
<time>2026-09-04T06:31:37Z</time>
</trkpt>
<trkpt lat="45.438790000" lon="-71.076070000">
<ele>0</ele>
<time>2026-09-04T06:31:38Z</time>
</trkpt>
<trkpt lat="45.441210000" lon="-71.078040000">
<ele>0</ele>
<time>2026-09-04T06:31:39Z</time>
</trkpt>
<trkpt lat="45.442640000" lon="-71.079130000">
<ele>0</ele>
<time>2026-09-04T06:31:40Z</time>
</trkpt>
<trkpt lat="45.442950000" lon="-71.079270000">
<ele>0</ele>
<time>2026-09-04T06:31:41Z</time>
</trkpt>
<trkpt lat="45.443720000" lon="-71.079310000">
<ele>0</ele>
<time>2026-09-04T06:31:42Z</time>
</trkpt>
<trkpt lat="45.444770000" lon="-71.079260000">
<ele>0</ele>
<time>2026-09-04T06:31:43Z</time>
</trkpt>
<trkpt lat="45.444770000" lon="-71.079260000">
<ele>0</ele>
<time>2026-09-04T06:31:44Z</time>
</trkpt>
<trkpt lat="45.445190000" lon="-71.079220000">
<ele>0</ele>
<time>2026-09-04T06:31:45Z</time>
</trkpt>
<trkpt lat="45.445770000" lon="-71.079300000">
<ele>0</ele>
<time>2026-09-04T06:31:46Z</time>
</trkpt>
<trkpt lat="45.447420000" lon="-71.079390000">
<ele>0</ele>
<time>2026-09-04T06:31:47Z</time>
</trkpt>
<trkpt lat="45.448900000" lon="-71.079380000">
<ele>0</ele>
<time>2026-09-04T06:31:48Z</time>
</trkpt>
<trkpt lat="45.451120000" lon="-71.079430000">
<ele>0</ele>
<time>2026-09-04T06:31:49Z</time>
</trkpt>
<trkpt lat="45.454080000" lon="-71.079550000">
<ele>0</ele>
<time>2026-09-04T06:31:50Z</time>
</trkpt>
<trkpt lat="45.456040000" lon="-71.079590000">
<ele>0</ele>
<time>2026-09-04T06:31:51Z</time>
</trkpt>
<trkpt lat="45.456640000" lon="-71.079380000">
<ele>0</ele>
<time>2026-09-04T06:31:52Z</time>
</trkpt>
<trkpt lat="45.456640000" lon="-71.079380000">
<ele>0</ele>
<time>2026-09-04T06:31:53Z</time>
</trkpt>
<trkpt lat="45.456870000" lon="-71.079280000">
<ele>0</ele>
<time>2026-09-04T06:31:54Z</time>
</trkpt>
<trkpt lat="45.457660000" lon="-71.078790000">
<ele>0</ele>
<time>2026-09-04T06:31:55Z</time>
</trkpt>
<trkpt lat="45.458190000" lon="-71.078340000">
<ele>0</ele>
<time>2026-09-04T06:31:56Z</time>
</trkpt>
<trkpt lat="45.458560000" lon="-71.077960000">
<ele>0</ele>
<time>2026-09-04T06:31:57Z</time>
</trkpt>
<trkpt lat="45.459570000" lon="-71.076820000">
<ele>0</ele>
<time>2026-09-04T06:31:58Z</time>
</trkpt>
<trkpt lat="45.460530000" lon="-71.075630000">
<ele>0</ele>
<time>2026-09-04T06:31:59Z</time>
</trkpt>
<trkpt lat="45.461900000" lon="-71.074470000">
<ele>0</ele>
<time>2026-09-04T06:32:00Z</time>
</trkpt>
<trkpt lat="45.462490000" lon="-71.074080000">
<ele>0</ele>
<time>2026-09-04T06:32:01Z</time>
</trkpt>
<trkpt lat="45.462950000" lon="-71.073840000">
<ele>0</ele>
<time>2026-09-04T06:32:02Z</time>
</trkpt>
<trkpt lat="45.462770000" lon="-71.072320000">
<ele>0</ele>
<time>2026-09-04T06:32:03Z</time>
</trkpt>
<trkpt lat="45.461940000" lon="-71.072290000">
<ele>0</ele>
<time>2026-09-04T06:32:04Z</time>
</trkpt>
<trkpt lat="45.461560000" lon="-71.072080000">
<ele>0</ele>
<time>2026-09-04T06:32:05Z</time>
</trkpt>
<trkpt lat="45.461410000" lon="-71.071960000">
<ele>0</ele>
<time>2026-09-04T06:32:06Z</time>
</trkpt>
</trkseg>
</trk>
</gpx>
